Time;durP1;ratioP1;P1;durP2;ratioP2;P2;SDS_P1;SDS_P2;PMS_P1;PMS_P2;Temp;Humidity;BMP_temperature;BMP_pressure;BME280_temperature;BME280_humidity;BME280_pressure;Samples;Min_cycle;Max_cycle;Signal;HPM_P1;HPM_P2
2023/03/04 00:01:06;;;;;;;68.40;32.10;;;;;;;1.40;58.88;101304.19;107368;1257;97829;-65
2023/03/04 00:03:36;;;;;;;68.40;29.00;;;;;;;1.40;59.27;101299.96;107320;1256;112201;-65
2023/03/04 00:06:04;;;;;;;67.30;30.00;;;;;;;1.38;59.48;101298.79;107339;1257;109047;-66
2023/03/04 00:08:33;;;;;;;66.20;28.30;;;;;;;1.34;59.64;101299.33;107334;1259;107002;-64
2023/03/04 00:11:01;;;;;;;66.10;28.40;;;;;;;1.32;59.81;101296.74;107302;1256;97856;-64
2023/03/04 00:13:30;;;;;;;64.10;28.60;;;;;;;1.32;60.02;101294.44;107371;1255;97716;-64
2023/03/04 00:15:58;;;;;;;54.40;28.80;;;;;;;1.32;60.30;101291.08;107377;1256;111957;-66
2023/03/04 00:18:26;;;;;;;63.50;29.40;;;;;;;1.31;60.26;101291.30;107383;1257;109892;-67
2023/03/04 00:20:54;;;;;;;52.80;26.90;;;;;;;1.29;60.33;101285.92;107349;1259;108966;-65
2023/03/04 00:23:23;;;;;;;58.30;26.60;;;;;;;1.28;60.42;101282.08;107345;1257;97899;-65
2023/03/04 00:25:51;;;;;;;63.90;29.30;;;;;;;1.27;60.55;101282.47;107285;1257;97954;-65
2023/03/04 00:28:20;;;;;;;54.30;28.90;;;;;;;1.23;60.63;101279.42;107332;1259;112067;-65
2023/03/04 00:30:48;;;;;;;60.50;28.50;;;;;;;1.19;60.45;101277.14;107368;1257;110728;-66
2023/03/04 00:33:16;;;;;;;64.50;30.30;;;;;;;1.11;60.35;101273.57;107319;1259;107605;-67
2023/03/04 00:35:45;;;;;;;59.40;28.60;;;;;;;1.06;60.40;101270.25;107216;1259;97838;-67
2023/03/04 00:38:13;;;;;;;62.80;29.30;;;;;;;1.04;60.47;101269.98;107301;1257;97708;-65
2023/03/04 00:40:43;;;;;;;63.60;29.00;;;;;;;1.02;60.56;101269.69;107342;1259;111456;-65
2023/03/04 00:43:11;;;;;;;59.90;29.20;;;;;;;1.01;60.51;101266.56;107307;1257;110663;-65
2023/03/04 00:45:40;;;;;;;61.50;28.10;;;;;;;0.99;60.54;101259.75;107384;1258;108744;-66
2023/03/04 00:48:09;;;;;;;57.40;28.00;;;;;;;0.97;60.63;101258.23;107360;1257;97830;-65
2023/03/04 00:50:37;;;;;;;62.10;28.90;;;;;;;0.93;60.66;101257.33;107329;1257;98530;-66
2023/03/04 00:53:06;;;;;;;63.30;28.70;;;;;;;0.90;60.82;101252.17;107380;1257;111977;-65
2023/03/04 00:55:34;;;;;;;56.40;26.50;;;;;;;0.87;60.75;101252.80;107272;1259;109950;-66
2023/03/04 00:58:03;;;;;;;54.20;27.60;;;;;;;0.83;60.95;101251.73;107244;1259;107696;-65
2023/03/04 01:00:31;;;;;;;61.00;28.30;;;;;;;0.81;60.85;101246.52;107258;1257;97951;-65
2023/03/04 01:03:00;;;;;;;66.70;29.60;;;;;;;0.77;60.81;101242.26;107402;1257;97827;-65
2023/03/04 01:05:28;;;;;;;61.30;29.40;;;;;;;0.73;60.87;101240.27;107269;1257;112491;-65
2023/03/04 01:07:56;;;;;;;68.70;30.80;;;;;;;0.71;60.57;101238.61;107413;1258;110883;-64
2023/03/04 01:10:25;;;;;;;63.60;30.90;;;;;;;0.68;60.60;101236.78;107389;1258;108828;-66
2023/03/04 01:12:53;;;;;;;57.50;29.50;;;;;;;0.65;60.81;101236.20;107411;1258;97879;-65
2023/03/04 01:15:22;;;;;;;56.40;28.80;;;;;;;0.61;60.54;101237.04;107394;1258;98372;-66
2023/03/04 01:17:50;;;;;;;81.20;31.50;;;;;;;0.56;60.47;101228.98;107384;1257;111821;-65
2023/03/04 01:20:18;;;;;;;70.10;30.60;;;;;;;0.51;60.50;101229.71;107391;1259;110628;-66
2023/03/04 01:22:47;;;;;;;68.90;29.00;;;;;;;0.41;60.37;101221.96;107306;1260;108598;-65
2023/03/04 01:25:15;;;;;;;66.70;30.50;;;;;;;0.32;60.52;101221.92;107437;1254;96729;-65
2023/03/04 01:27:43;;;;;;;60.80;28.50;;;;;;;0.25;60.85;101220.61;107447;1257;97848;-65
2023/03/04 01:30:12;;;;;;;57.40;28.90;;;;;;;0.16;60.73;101220.61;107465;1254;113224;-66
2023/03/04 01:32:40;;;;;;;60.80;29.40;;;;;;;0.09;60.68;101217.35;107439;1255;110139;-64
2023/03/04 01:35:09;;;;;;;67.40;28.40;;;;;;;0.04;60.45;101218.08;107457;1255;108343;-64
2023/03/04 01:37:38;;;;;;;58.40;28.60;;;;;;;-0.01;60.85;101213.67;107399;1259;97811;-64
2023/03/04 01:40:08;;;;;;;58.30;26.70;;;;;;;-0.07;61.10;101206.48;107433;1259;97810;-66
2023/03/04 01:42:38;;;;;;;55.40;28.50;;;;;;;-0.14;61.05;101207.62;107417;1259;113044;-65
2023/03/04 01:45:15;;;;;;;67.20;28.00;;;;;;;-0.19;61.09;101203.94;107379;1259;109990;-65
2023/03/04 01:47:49;;;;;;;58.60;29.50;;;;;;;-0.24;61.18;101200.56;107413;1256;107692;-65
2023/03/04 01:50:17;;;;;;;;;;;;;;;-0.30;61.57;101196.91;107425;1259;97828;-65
2023/03/04 01:52:46;;;;;;;57.30;26.40;;;;;;;-0.35;61.34;101196.38;107455;1257;97719;-64
2023/03/04 01:55:17;;;;;;;63.30;28.50;;;;;;;-0.38;61.33;101195.60;107321;1256;112078;-66
2023/03/04 01:57:48;;;;;;;62.20;28.00;;;;;;;-0.42;61.30;101194.00;107365;1259;110904;-64
2023/03/04 02:00:25;;;;;;;62.20;28.20;;;;;;;-0.45;61.05;101191.64;107247;1257;108638;-65
2023/03/04 02:03:06;;;;;;;57.30;27.80;;;;;;;-0.50;61.43;101193.91;107295;1260;97832;-65
2023/03/04 02:05:37;;;;;;;59.70;28.00;;;;;;;-0.52;61.49;101189.05;107127;1260;98392;-64
2023/03/04 02:08:06;;;;;;;60.40;25.50;;;;;;;-0.55;61.52;101187.59;107331;1260;111969;-66
2023/03/04 02:10:37;;;;;;;59.70;27.90;;;;;;;-0.60;61.79;101187.94;107417;1259;109053;-65
2023/03/04 02:13:06;;;;;;;66.90;28.90;;;;;;;-0.64;61.53;101184.58;107408;1259;108569;-66
2023/03/04 02:15:34;;;;;;;67.20;30.90;;;;;;;-0.68;61.78;101181.35;107288;1258;97829;-67
2023/03/04 02:18:22;;;;;;;63.70;29.30;;;;;;;-0.72;61.96;101177.60;107429;1258;98367;-65
2023/03/04 02:21:18;;;;;;;59.60;27.90;;;;;;;-0.74;62.05;101173.61;107425;1258;112366;-67
2023/03/04 02:24:14;;;;;;;53.80;25.00;;;;;;;-0.73;62.17;101173.27;107378;1259;109646;-68
2023/03/04 02:26:45;;;;;;;55.50;28.40;;;;;;;-0.75;62.39;101172.77;107425;1257;108613;-64
2023/03/04 02:29:15;;;;;;;66.30;29.60;;;;;;;-0.76;62.33;101172.30;107274;1260;97854;-64
2023/03/04 02:31:47;;;;;;;55.40;28.60;;;;;;;-0.77;62.01;101169.16;107312;1260;97828;-65
2023/03/04 02:34:28;;;;;;;56.70;27.30;;;;;;;-0.79;62.24;101163.06;107283;1257;111840;-66
2023/03/04 02:36:57;;;;;;;60.30;29.10;;;;;;;-0.80;62.59;101163.98;107375;1260;109546;-65
2023/03/04 02:39:31;;;;;;;60.10;29.00;;;;;;;-0.80;62.29;101162.37;107268;1257;108862;-64
2023/03/04 02:42:01;;;;;;;67.20;31.60;;;;;;;-0.80;62.79;101161.12;107408;1257;97815;-65
2023/03/04 02:44:36;;;;;;;68.40;31.30;;;;;;;-0.82;62.95;101159.09;107137;1256;97825;-65
2023/03/04 02:47:07;;;;;;;61.00;29.70;;;;;;;-0.86;63.04;101157.11;107377;1257;111536;-66
2023/03/04 02:49:40;;;;;;;61.30;30.20;;;;;;;-0.83;63.12;101154.56;107419;1260;110030;-65
2023/03/04 02:52:13;;;;;;;54.20;28.00;;;;;;;-0.82;63.44;101149.05;107395;1257;105728;-65
2023/03/04 02:54:41;;;;;;;59.20;27.10;;;;;;;-0.79;63.45;101142.08;107295;1260;98592;-63
2023/03/04 02:57:12;;;;;;;57.80;29.20;;;;;;;-0.75;64.03;101133.51;107342;1258;97864;-66
2023/03/04 02:59:42;;;;;;;66.80;28.60;;;;;;;-0.71;64.61;101133.02;107266;1258;111849;-65
2023/03/04 03:02:14;;;;;;;55.90;27.80;;;;;;;-0.70;64.62;101131.20;107401;1259;109901;-65
2023/03/04 03:04:43;;;;;;;69.20;30.30;;;;;;;-0.70;64.51;101120.09;107376;1259;108273;-65
2023/03/04 03:07:13;;;;;;;64.80;29.40;;;;;;;-0.67;64.43;101116.14;107396;1257;97876;-66
2023/03/04 03:09:41;;;;;;;65.80;28.60;;;;;;;-0.65;64.71;101116.39;107378;1259;97687;-64
2023/03/04 03:12:10;;;;;;;59.30;29.30;;;;;;;-0.65;64.46;101109.52;107409;1257;112045;-64
2023/03/04 03:14:38;;;;;;;63.60;31.20;;;;;;;-0.62;64.46;101107.48;107308;1257;108375;-64
2023/03/04 03:17:09;;;;;;;72.40;30.30;;;;;;;-0.61;64.44;101100.94;107237;1260;107503;-65
2023/03/04 03:19:37;;;;;;;66.40;28.70;;;;;;;-0.62;64.48;101098.86;107277;1260;97907;-65
2023/03/04 03:22:07;;;;;;;59.20;27.40;;;;;;;-0.62;64.82;101098.51;107405;1257;98363;-66
2023/03/04 03:24:35;;;;;;;69.40;30.80;;;;;;;-0.61;64.35;101092.48;107382;1257;111355;-65
2023/03/04 03:27:04;;;;;;;57.20;28.20;;;;;;;-0.61;64.56;101094.58;107445;1254;109931;-65
2023/03/04 03:29:33;;;;;;;56.60;26.70;;;;;;;-0.60;64.73;101090.51;107370;1257;108235;-66
2023/03/04 03:32:01;;;;;;;67.30;28.20;;;;;;;-0.58;64.58;101087.83;107387;1260;97779;-66
2023/03/04 03:34:29;;;;;;;56.60;26.20;;;;;;;-0.59;64.24;101083.44;107404;1257;97822;-65
2023/03/04 03:36:57;;;;;;;64.80;29.60;;;;;;;-0.62;64.02;101079.66;107315;1257;111732;-66
2023/03/04 03:39:26;;;;;;;60.80;28.50;;;;;;;-0.65;64.30;101071.66;107393;1258;110069;-66
2023/03/04 03:41:55;;;;;;;68.00;30.40;;;;;;;-0.65;64.20;101073.09;107287;1260;108480;-66
2023/03/04 03:44:23;;;;;;;56.80;28.30;;;;;;;-0.68;64.39;101068.79;107376;1256;97675;-68
2023/03/04 03:46:51;;;;;;;54.10;28.30;;;;;;;-0.72;64.40;101067.52;107453;1258;97735;-65
2023/03/04 03:49:20;;;;;;;64.40;27.90;;;;;;;-0.75;64.62;101068.86;107296;1257;112555;-66
2023/03/04 03:51:49;;;;;;;60.30;29.80;;;;;;;-0.75;64.49;101070.79;107385;1258;110133;-66
2023/03/04 03:54:17;;;;;;;64.80;30.30;;;;;;;-0.73;64.52;101072.17;107320;1257;109348;-66
2023/03/04 03:56:46;;;;;;;83.90;30.60;;;;;;;-0.73;64.55;101073.20;107392;1257;97822;-64
2023/03/04 03:59:14;;;;;;;62.90;28.40;;;;;;;-0.77;64.85;101074.57;107363;1257;97708;-65
2023/03/04 04:01:42;;;;;;;64.90;28.90;;;;;;;-0.81;64.82;101078.75;107397;1257;112938;-67
2023/03/04 04:04:11;;;;;;;197.20;119.40;;;;;;;-0.86;65.00;101076.33;107389;1257;109607;-68
2023/03/04 04:06:39;;;;;;;60.70;32.20;;;;;;;-0.90;64.56;101075.23;107324;1257;108453;-65
2023/03/04 04:09:07;;;;;;;67.00;30.20;;;;;;;-0.91;64.97;101072.45;107326;1257;97926;-65
2023/03/04 04:11:35;;;;;;;67.20;29.30;;;;;;;-0.90;64.72;101067.14;107393;1257;97667;-65
2023/03/04 04:14:04;;;;;;;57.20;28.30;;;;;;;-0.91;64.69;101066.28;107375;1257;111754;-65
2023/03/04 04:16:32;;;;;;;64.60;27.30;;;;;;;-0.94;65.10;101065.48;107420;1257;109512;-65
2023/03/04 04:19:00;;;;;;;61.00;29.50;;;;;;;-0.96;64.84;101065.20;107339;1257;107447;-65
2023/03/04 04:21:29;;;;;;;53.90;28.30;;;;;;;-1.01;65.01;101062.41;107282;1257;97826;-65
2023/03/04 04:23:57;;;;;;;58.80;28.40;;;;;;;-1.06;65.04;101061.17;107289;1257;97710;-64
2023/03/04 04:26:28;;;;;;;58.70;27.80;;;;;;;-1.09;65.05;101061.62;107396;1258;113047;-64
2023/03/04 04:28:56;;;;;;;58.40;28.20;;;;;;;-1.14;65.18;101060.72;107375;1257;109557;-65
2023/03/04 04:31:24;;;;;;;67.50;28.90;;;;;;;-1.18;64.79;101051.38;107350;1258;108739;-64
2023/03/04 04:33:53;;;;;;;73.90;29.20;;;;;;;-1.20;64.97;101059.20;107356;1260;97845;-66
2023/03/04 04:36:21;;;;;;;67.60;30.20;;;;;;;-1.20;64.93;101060.61;107272;1256;98433;-65
2023/03/04 04:38:58;;;;;;;60.60;27.70;;;;;;;-1.21;65.17;101058.34;107394;1257;112026;-68
2023/03/04 04:41:41;;;;;;;66.90;28.70;;;;;;;-1.19;65.32;101058.63;107099;1257;110005;-66
2023/03/04 04:44:11;;;;;;;69.30;30.00;;;;;;;-1.19;65.10;101052.63;107292;1256;108499;-66
2023/03/04 04:46:40;;;;;;;64.60;29.00;;;;;;;-1.20;65.00;101054.08;107387;1257;97841;-65
2023/03/04 04:49:10;;;;;;;64.60;28.60;;;;;;;-1.20;65.30;101056.54;107260;1257;97826;-66
2023/03/04 04:51:38;;;;;;;71.70;29.60;;;;;;;-1.19;65.40;101054.75;107418;1257;112418;-64
2023/03/04 04:54:07;;;;;;;60.40;29.60;;;;;;;-1.18;65.29;101056.65;107375;1257;109705;-66
2023/03/04 04:56:35;;;;;;;68.80;30.60;;;;;;;-1.17;65.47;101057.88;107324;1257;107802;-65
2023/03/04 04:59:07;;;;;;;60.10;29.30;;;;;;;-1.17;65.70;101061.20;107245;1257;97860;-65
2023/03/04 05:01:36;;;;;;;67.60;29.50;;;;;;;-1.20;65.42;101062.86;107110;1263;98354;-66
2023/03/04 05:04:05;;;;;;;55.30;29.10;;;;;;;-1.21;65.43;101064.34;107313;1257;110630;-64
2023/03/04 05:06:33;;;;;;;63.50;29.80;;;;;;;-1.22;65.52;101061.40;107282;1257;110117;-65
2023/03/04 05:09:03;;;;;;;64.20;28.90;;;;;;;-1.21;65.46;101067.67;107302;1260;108051;-64
2023/03/04 05:11:31;;;;;;;63.70;29.30;;;;;;;-1.20;65.35;101068.19;107210;1257;97862;-64
2023/03/04 05:14:00;;;;;;;76.50;32.20;;;;;;;-1.22;65.03;101070.53;107262;1260;97922;-64
2023/03/04 05:16:28;;;;;;;69.50;33.30;;;;;;;-1.26;65.11;101069.96;107156;1257;112390;-65
2023/03/04 05:18:57;;;;;;;104.30;39.20;;;;;;;-1.28;65.11;101072.98;107105;1256;110046;-65
2023/03/04 05:21:25;;;;;;;77.30;34.70;;;;;;;-1.29;65.41;101070.39;107271;1258;108925;-65
2023/03/04 05:23:54;;;;;;;101.80;39.20;;;;;;;-1.30;65.63;101067.95;107326;1257;97897;-64
2023/03/04 05:26:22;;;;;;;98.50;40.80;;;;;;;-1.29;65.49;101064.40;107396;1257;97701;-64
2023/03/04 05:28:50;;;;;;;97.60;40.30;;;;;;;-1.27;65.53;101065.75;107307;1256;111383;-64
2023/03/04 05:31:19;;;;;;;97.90;41.60;;;;;;;-1.24;65.58;101067.08;107418;1258;109501;-66
2023/03/04 05:33:47;;;;;;;84.50;38.70;;;;;;;-1.20;65.95;101069.40;107392;1257;108268;-65
2023/03/04 05:36:15;;;;;;;89.30;38.20;;;;;;;-1.17;65.76;101070.54;107393;1257;98605;-64
2023/03/04 05:38:44;;;;;;;87.90;37.80;;;;;;;-1.15;65.83;101075.92;107420;1257;97729;-65
2023/03/04 05:41:12;;;;;;;90.70;39.60;;;;;;;-1.10;65.81;101069.95;107329;1257;112544;-64
2023/03/04 05:43:41;;;;;;;92.80;44.90;;;;;;;-1.04;65.90;101071.14;107136;1257;109499;-66
2023/03/04 05:46:15;;;;;;;113.70;50.10;;;;;;;-0.99;66.08;101068.30;107322;1257;108657;-64
2023/03/04 05:48:44;;;;;;;91.40;45.90;;;;;;;-0.88;66.44;101068.45;107128;1257;97860;-66
2023/03/04 05:51:12;;;;;;;82.60;36.70;;;;;;;-0.70;66.35;101065.85;107255;1256;97851;-63
2023/03/04 05:53:41;;;;;;;88.70;37.60;;;;;;;-0.60;66.37;101064.25;107326;1256;111452;-65
2023/03/04 05:56:14;;;;;;;81.00;37.90;;;;;;;-0.51;66.04;101066.05;107353;1256;108884;-64
2023/03/04 05:58:43;;;;;;;97.40;44.70;;;;;;;-0.43;66.17;101060.83;107218;1257;109227;-64
2023/03/04 06:01:13;;;;;;;94.20;43.30;;;;;;;-0.37;66.03;101057.59;107367;1260;97831;-65
2023/03/04 06:03:42;;;;;;;100.10;45.30;;;;;;;-0.33;65.75;101053.71;107295;1257;97863;-63
2023/03/04 06:06:10;;;;;;;90.30;39.50;;;;;;;-0.28;65.77;101050.22;107387;1257;111546;-65
2023/03/04 06:08:39;;;;;;;76.10;37.90;;;;;;;-0.25;65.53;101048.34;107464;1256;110045;-64
2023/03/04 06:11:07;;;;;;;77.80;35.80;;;;;;;-0.23;65.77;101049.83;107426;1256;108801;-64
2023/03/04 06:13:37;;;;;;;72.80;35.50;;;;;;;-0.20;65.71;101041.77;107401;1257;97831;-64
2023/03/04 06:16:06;;;;;;;72.10;36.50;;;;;;;-0.16;65.54;101039.50;107339;1257;98446;-66
2023/03/04 06:18:34;;;;;;;72.50;37.80;;;;;;;-0.12;65.64;101036.20;107416;1257;112378;-64
2023/03/04 06:21:03;;;;;;;77.30;37.60;;;;;;;-0.09;65.59;101033.40;107410;1257;110198;-65
2023/03/04 06:23:31;;;;;;;107.50;48.20;;;;;;;-0.06;65.40;101032.77;107381;1256;107903;-64
2023/03/04 06:26:00;;;;;;;81.40;38.50;;;;;;;-0.02;65.21;101028.53;107345;1260;97813;-65
2023/03/04 06:28:29;;;;;;;81.30;38.80;;;;;;;0.02;65.60;101024.90;107440;1257;97724;-66
2023/03/04 06:30:57;;;;;;;86.90;38.70;;;;;;;0.05;65.57;101024.21;107398;1257;111677;-65
2023/03/04 06:33:26;;;;;;;77.40;37.40;;;;;;;0.06;65.48;101025.73;107416;1257;109276;-65
2023/03/04 06:35:56;;;;;;;74.00;37.40;;;;;;;0.07;65.42;101024.30;107392;1255;108286;-64
2023/03/04 06:38:25;;;;;;;83.90;40.60;;;;;;;0.10;65.67;101025.42;107412;1257;97870;-65
2023/03/04 06:40:54;;;;;;;78.20;39.80;;;;;;;0.12;65.92;101022.30;107328;1256;100069;-65
2023/03/04 06:43:24;;;;;;;77.80;39.00;;;;;;;0.16;65.84;101018.65;107348;1257;111080;-65
2023/03/04 06:45:53;;;;;;;83.10;39.90;;;;;;;0.21;65.68;101018.64;107404;1257;109218;-64
2023/03/04 06:48:22;;;;;;;78.30;38.30;;;;;;;0.26;65.79;101016.45;107382;1257;108753;-67
2023/03/04 06:50:50;;;;;;;90.70;40.60;;;;;;;0.33;66.15;101012.67;107375;1257;97839;-65
2023/03/04 06:53:19;;;;;;;84.00;38.30;;;;;;;0.39;66.06;101009.25;107403;1257;97944;-65
2023/03/04 06:55:48;;;;;;;89.00;40.30;;;;;;;0.46;66.02;101011.05;107393;1254;112706;-64
2023/03/04 06:58:17;;;;;;;78.00;39.90;;;;;;;0.55;65.90;101008.40;107406;1257;109263;-63
2023/03/04 07:00:45;;;;;;;78.40;40.90;;;;;;;0.64;66.24;101009.23;107390;1254;107692;-65
2023/03/04 07:03:14;;;;;;;80.20;38.10;;;;;;;0.73;65.94;101002.30;107427;1254;97938;-65
2023/03/04 07:05:42;;;;;;;77.60;38.10;;;;;;;0.84;65.78;101004.84;107421;1254;98509;-66
2023/03/04 07:08:11;;;;;;;96.90;40.20;;;;;;;0.94;65.88;101003.16;107414;1254;111810;-65
2023/03/04 07:10:40;;;;;;;75.00;36.80;;;;;;;1.04;65.75;101004.84;107378;1254;109631;-65
2023/03/04 07:13:08;;;;;;;72.40;36.50;;;;;;;1.15;65.89;101005.23;107383;1254;109447;-66
2023/03/04 07:15:37;;;;;;;67.40;32.40;;;;;;;1.26;65.90;100995.02;107345;1258;97935;-64
2023/03/04 07:18:05;;;;;;;69.30;33.10;;;;;;;1.37;66.11;100993.08;107436;1254;98478;-66
2023/03/04 07:20:33;;;;;;;71.10;34.90;;;;;;;1.50;66.11;100989.31;107443;1254;111741;-65
2023/03/04 07:23:02;;;;;;;61.40;31.00;;;;;;;1.62;66.32;100985.21;107430;1254;109359;-67
2023/03/04 07:25:30;;;;;;;67.60;31.20;;;;;;;1.75;66.11;100980.88;107489;1254;108276;-66
2023/03/04 07:28:09;;;;;;;72.10;33.40;;;;;;;1.90;66.54;100976.23;107548;1254;97971;-68
2023/03/04 07:30:37;;;;;;;69.30;32.70;;;;;;;2.07;66.32;100969.79;107455;1254;97732;-65
2023/03/04 07:33:06;;;;;;;66.80;31.40;;;;;;;2.22;66.25;100969.73;107413;1254;111981;-63
2023/03/04 07:35:52;;;;;;;71.70;31.50;;;;;;;2.39;66.23;100967.30;107361;1254;110133;-66
2023/03/04 07:38:35;;;;;;;64.20;31.10;;;;;;;2.59;66.27;100963.98;107227;1254;107955;-67
2023/03/04 07:41:04;;;;;;;58.40;30.90;;;;;;;2.76;66.23;100958.48;107451;1257;97923;-65
2023/03/04 07:43:32;;;;;;;70.30;33.80;;;;;;;2.93;65.98;100957.20;107492;1254;97726;-64
2023/03/04 07:46:01;;;;;;;65.20;34.00;;;;;;;3.09;65.84;100954.20;107432;1254;111793;-66
2023/03/04 07:48:30;;;;;;;73.60;35.70;;;;;;;3.26;65.44;100950.30;107379;1254;107665;-65
2023/03/04 07:51:20;;;;;;;73.80;37.50;;;;;;;3.42;65.22;100944.30;107429;1254;108895;-65
2023/03/04 07:53:50;;;;;;;70.00;32.70;;;;;;;3.61;64.94;100942.16;107410;1257;97912;-67
2023/03/04 07:56:22;;;;;;;75.60;34.20;;;;;;;3.77;64.56;100940.70;107285;1257;97835;-66
2023/03/04 07:58:55;;;;;;;70.00;33.50;;;;;;;3.93;63.73;100938.39;107459;1254;111420;-66
2023/03/04 08:01:33;;;;;;;69.70;31.80;;;;;;;4.08;62.88;100936.47;107299;1254;108771;-67
2023/03/04 08:04:04;;;;;;;46.90;24.00;;;;;;;4.25;60.47;100932.09;107401;1257;108716;-65
2023/03/04 08:06:33;;;;;;;54.80;25.10;;;;;;;4.40;59.73;100926.38;107300;1256;97903;-66
2023/03/04 08:09:06;;;;;;;47.00;22.90;;;;;;;4.58;59.04;100927.12;107411;1254;97855;-65
2023/03/04 08:11:36;;;;;;;49.90;22.00;;;;;;;4.76;58.14;100927.42;107467;1254;111810;-66
2023/03/04 08:14:05;;;;;;;50.60;21.80;;;;;;;4.93;57.04;100925.85;107458;1254;109318;-66
2023/03/04 08:16:34;;;;;;;39.30;22.60;;;;;;;5.07;56.63;100914.12;107461;1254;107800;-66
2023/03/04 08:19:03;;;;;;;47.70;22.50;;;;;;;5.20;56.78;100916.15;107392;1259;97845;-67
2023/03/04 08:21:32;;;;;;;46.30;22.30;;;;;;;5.36;55.61;100915.36;107431;1254;98382;-67
2023/03/04 08:24:06;;;;;;;45.10;21.90;;;;;;;5.47;55.52;100912.48;107450;1254;112227;-65
2023/03/04 08:26:44;;;;;;;47.40;21.20;;;;;;;5.62;55.25;100911.52;107449;1254;110022;-64
2023/03/04 08:29:22;;;;;;;45.50;21.80;;;;;;;5.79;54.70;100903.27;107417;1259;107645;-66
2023/03/04 08:31:52;;;;;;;39.40;21.40;;;;;;;5.96;53.82;100896.31;107284;1254;98633;-67
2023/03/04 08:34:24;;;;;;;43.50;22.10;;;;;;;6.12;53.47;100892.20;107303;1256;97781;-69
2023/03/04 08:36:53;;;;;;;40.20;21.90;;;;;;;6.30;53.03;100890.61;107424;1254;112516;-65
2023/03/04 08:39:21;;;;;;;40.20;21.40;;;;;;;6.49;52.73;100886.15;107438;1254;108723;-66
2023/03/04 08:41:50;;;;;;;41.20;21.90;;;;;;;6.69;51.40;100883.87;107161;1254;107872;-67
2023/03/04 08:44:19;;;;;;;37.50;21.20;;;;;;;6.86;51.15;100876.25;107403;1254;97976;-66
2023/03/04 08:46:47;;;;;;;45.20;20.90;;;;;;;6.98;51.43;100867.73;107443;1254;97867;-67
2023/03/04 08:49:16;;;;;;;43.40;21.10;;;;;;;7.20;51.29;100866.84;107386;1254;112201;-67
2023/03/04 08:51:45;;;;;;;51.60;21.80;;;;;;;7.40;49.67;100866.80;107441;1254;110452;-66
2023/03/04 08:54:13;;;;;;;38.90;20.50;;;;;;;7.60;48.95;100863.90;107425;1254;108513;-66
2023/03/04 08:56:42;;;;;;;32.80;18.00;;;;;;;7.79;48.92;100865.59;107375;1254;97851;-66
2023/03/04 08:59:10;;;;;;;37.90;20.30;;;;;;;7.98;47.36;100863.42;107463;1254;97848;-66
2023/03/04 09:01:39;;;;;;;43.90;22.10;;;;;;;8.09;47.53;100852.39;107417;1254;111869;-65
2023/03/04 09:04:07;;;;;;;40.10;21.40;;;;;;;8.26;48.06;100846.95;107388;1254;109991;-64
2023/03/04 09:06:36;;;;;;;45.30;19.80;;;;;;;8.54;46.57;100846.44;107382;1254;109001;-68
2023/03/04 09:09:08;;;;;;;46.00;23.90;;;;;;;8.75;46.72;100831.96;107115;1254;97978;-67
2023/03/04 09:11:37;;;;;;;37.50;20.20;;;;;;;8.99;46.22;100832.71;107383;1257;98447;-68
2023/03/04 09:14:05;;;;;;;33.50;18.30;;;;;;;9.25;44.54;100825.75;107296;1254;112269;-66
2023/03/04 09:16:37;;;;;;;33.70;18.80;;;;;;;9.48;43.70;100824.75;107375;1253;109632;-69
2023/03/04 09:19:14;;;;;;;31.80;16.60;;;;;;;9.71;43.64;100818.19;107285;1254;107595;-66
2023/03/04 09:21:43;;;;;;;37.30;18.80;;;;;;;9.94;42.82;100812.46;107262;1254;97807;-67
2023/03/04 09:24:11;;;;;;;41.10;19.60;;;;;;;10.16;42.06;100804.34;107456;1254;98370;-68
2023/03/04 09:26:40;;;;;;;36.90;18.10;;;;;;;10.44;41.71;100798.38;107417;1254;111566;-67
2023/03/04 09:29:09;;;;;;;34.30;18.50;;;;;;;10.87;40.84;100795.71;107497;1254;111497;-67
2023/03/04 09:31:37;;;;;;;36.60;18.60;;;;;;;11.48;40.43;100792.14;107431;1254;108203;-67
2023/03/04 09:34:06;;;;;;;39.20;18.70;;;;;;;12.32;38.87;100785.81;107459;1254;97836;-70
2023/03/04 09:36:34;;;;;;;38.30;19.10;;;;;;;13.02;37.64;100778.89;107447;1254;97870;-68
2023/03/04 09:39:03;;;;;;;35.90;18.60;;;;;;;13.66;36.28;100769.13;107409;1254;111353;-67
2023/03/04 09:41:58;;;;;;;34.00;17.40;;;;;;;14.19;35.63;100766.24;107428;1255;109005;-68
2023/03/04 09:44:48;;;;;;;33.60;17.70;;;;;;;14.85;34.01;100765.13;107321;1257;107942;-68
2023/03/04 09:47:20;;;;;;;35.40;17.20;;;;;;;15.20;34.04;100751.95;107243;1257;97855;-68
2023/03/04 09:50:09;;;;;;;33.30;17.40;;;;;;;15.60;34.42;100745.09;107436;1256;97743;-69
2023/03/04 09:53:06;;;;;;;31.70;16.00;;;;;;;16.12;33.25;100743.23;106595;1255;657488;-69
2023/03/04 09:55:41;;;;;;;27.30;16.40;;;;;;;16.54;32.37;100742.04;107486;1253;109931;-69
2023/03/04 09:58:25;;;;;;;34.50;17.60;;;;;;;16.92;32.04;100732.14;107464;1257;107672;-68
2023/03/04 10:01:16;;;;;;;27.50;16.20;;;;;;;17.22;30.79;100723.53;107364;1254;97857;-70
2023/03/04 10:03:50;;;;;;;34.60;16.10;;;;;;;17.28;29.32;100717.58;107278;1253;97876;-70
2023/03/04 10:06:21;;;;;;;25.10;15.50;;;;;;;17.66;29.60;100711.14;107516;1254;112152;-68
2023/03/04 10:09:01;;;;;;;31.80;16.30;;;;;;;18.35;28.25;100703.95;107476;1254;109699;-69
2023/03/04 10:11:41;;;;;;;41.40;17.10;;;;;;;18.77;27.33;100704.73;107399;1254;108826;-68
2023/03/04 10:14:22;;;;;;;25.20;15.60;;;;;;;18.93;27.50;100696.41;107371;1257;97808;-68
2023/03/04 10:16:52;;;;;;;26.90;15.20;;;;;;;19.30;26.82;100697.88;107478;1254;99516;-68
2023/03/04 10:19:43;;;;;;;21.60;14.50;;;;;;;19.53;26.75;100683.60;107441;1253;111721;-70
2023/03/04 10:22:40;;;;;;;31.60;15.30;;;;;;;19.99;25.99;100681.50;107146;1254;109363;-68
2023/03/04 10:25:19;;;;;;;33.30;15.10;;;;;;;20.35;25.60;100675.52;107398;1254;109797;-67
2023/03/04 10:27:52;;;;;;;25.60;15.20;;;;;;;20.65;26.59;100666.65;107455;1254;97807;-70
2023/03/04 10:30:51;;;;;;;30.10;15.10;;;;;;;21.29;25.23;100661.17;107428;1254;97758;-70
2023/03/04 10:33:24;;;;;;;25.80;14.30;;;;;;;21.66;24.57;100653.48;107441;1254;111296;-73
2023/03/04 10:36:23;;;;;;;23.40;13.80;;;;;;;22.01;22.70;100657.16;107458;1254;108834;-72
2023/03/04 10:39:06;;;;;;;26.70;14.00;;;;;;;21.81;23.38;100642.09;107444;1254;106951;-70
2023/03/04 10:41:35;;;;;;;28.60;14.10;;;;;;;22.00;24.71;100632.34;107419;1254;97816;-70
2023/03/04 10:44:07;;;;;;;21.10;13.50;;;;;;;22.36;23.18;100629.84;107443;1254;98386;-71
2023/03/04 10:46:47;;;;;;;24.10;13.30;;;;;;;22.74;23.48;100625.40;107404;1254;111638;-70
2023/03/04 10:49:23;;;;;;;28.40;14.80;;;;;;;23.17;22.28;100619.33;107320;1254;109949;-73
2023/03/04 10:52:20;;;;;;;25.60;13.80;;;;;;;23.47;22.15;100618.02;107404;1254;108011;-70
2023/03/04 10:54:52;;;;;;;21.70;13.90;;;;;;;23.67;21.69;100607.38;107315;1254;97841;-70
2023/03/04 10:57:36;;;;;;;20.70;15.30;;;;;;;23.68;20.85;100610.21;107495;1254;97736;-72
2023/03/04 11:00:17;;;;;;;20.80;12.70;;;;;;;23.00;21.02;100605.10;107454;1254;112113;-71
2023/03/04 11:02:46;;;;;;;21.00;13.30;;;;;;;23.15;21.31;100601.60;107329;1253;109231;-71
2023/03/04 11:05:23;;;;;;;21.70;13.70;;;;;;;23.30;21.55;100597.86;107413;1254;107669;-71
2023/03/04 11:07:58;;;;;;;21.10;12.20;;;;;;;23.69;21.32;100596.63;107445;1257;97844;-68
2023/03/04 11:11:00;;;;;;;;;;;;;;;;;;;;;
2023/03/04 11:14:02;;;;;;;23.90;12.70;;;;;;;24.24;19.47;100571.74;107365;1254;110978;-67
2023/03/04 11:16:33;;;;;;;25.60;12.30;;;;;;;24.35;19.50;100568.77;107476;1254;109048;-70
2023/03/04 11:19:23;;;;;;;19.00;12.00;;;;;;;24.41;20.36;100567.50;107269;1257;107970;-67
2023/03/04 11:21:54;;;;;;;18.80;11.80;;;;;;;24.62;20.10;100560.35;107440;1254;97838;-68